sensor_id;sensor_type;location;lat;lon;timestamp;P1;durP1;ratioP1;P2;durP2;ratioP2
75760;SDS011;64373;46.136;8.830;2023-08-21T00:02:01;7.10;;;6.40;;
75760;SDS011;64373;46.136;8.830;2023-08-21T00:04:27;8.75;;;7.10;;
75760;SDS011;64373;46.136;8.830;2023-08-21T00:06:53;7.38;;;6.68;;
75760;SDS011;64373;46.136;8.830;2023-08-21T00:09:18;8.35;;;7.47;;
75760;SDS011;64373;46.136;8.830;2023-08-21T00:11:44;8.40;;;7.60;;
75760;SDS011;64373;46.136;8.830;2023-08-21T00:14:10;9.40;;;7.70;;
75760;SDS011;64373;46.136;8.830;2023-08-21T00:16:35;7.68;;;6.85;;
75760;SDS011;64373;46.136;8.830;2023-08-21T00:19:01;8.10;;;6.53;;
75760;SDS011;64373;46.136;8.830;2023-08-21T00:21:26;8.55;;;7.03;;
75760;SDS011;64373;46.136;8.830;2023-08-21T00:23:52;5.97;;;5.38;;
75760;SDS011;64373;46.136;8.830;2023-08-21T00:26:17;5.68;;;5.00;;
75760;SDS011;64373;46.136;8.830;2023-08-21T00:28:43;5.80;;;5.20;;
75760;SDS011;64373;46.136;8.830;2023-08-21T00:31:08;6.50;;;5.72;;
75760;SDS011;64373;46.136;8.830;2023-08-21T00:33:34;7.25;;;6.50;;
75760;SDS011;64373;46.136;8.830;2023-08-21T00:35:59;7.25;;;6.55;;
75760;SDS011;64373;46.136;8.830;2023-08-21T00:38:25;11.38;;;9.45;;
75760;SDS011;64373;46.136;8.830;2023-08-21T00:40:51;8.52;;;7.72;;
75760;SDS011;64373;46.136;8.830;2023-08-21T00:43:17;8.30;;;7.45;;
75760;SDS011;64373;46.136;8.830;2023-08-21T00:45:44;9.45;;;8.20;;
75760;SDS011;64373;46.136;8.830;2023-08-21T00:48:10;8.75;;;7.60;;
75760;SDS011;64373;46.136;8.830;2023-08-21T00:50:37;8.27;;;7.38;;
75760;SDS011;64373;46.136;8.830;2023-08-21T00:53:03;7.90;;;7.07;;
75760;SDS011;64373;46.136;8.830;2023-08-21T00:55:29;6.72;;;6.03;;
75760;SDS011;64373;46.136;8.830;2023-08-21T00:57:55;6.60;;;5.95;;
75760;SDS011;64373;46.136;8.830;2023-08-21T01:00:21;8.13;;;6.93;;
75760;SDS011;64373;46.136;8.830;2023-08-21T01:02:48;7.60;;;6.80;;
75760;SDS011;64373;46.136;8.830;2023-08-21T01:05:13;7.93;;;6.93;;
75760;SDS011;64373;46.136;8.830;2023-08-21T01:07:44;7.20;;;6.50;;
75760;SDS011;64373;46.136;8.830;2023-08-21T01:10:28;6.82;;;6.13;;
75760;SDS011;64373;46.136;8.830;2023-08-21T01:13:00;8.50;;;7.60;;
75760;SDS011;64373;46.136;8.830;2023-08-21T01:15:30;8.43;;;7.07;;
75760;SDS011;64373;46.136;8.830;2023-08-21T01:17:56;8.75;;;7.85;;
75760;SDS011;64373;46.136;8.830;2023-08-21T01:20:22;8.57;;;7.60;;
75760;SDS011;64373;46.136;8.830;2023-08-21T01:22:48;8.93;;;8.02;;
75760;SDS011;64373;46.136;8.830;2023-08-21T01:25:15;7.65;;;6.85;;
75760;SDS011;64373;46.136;8.830;2023-08-21T01:27:42;7.60;;;6.75;;
75760;SDS011;64373;46.136;8.830;2023-08-21T01:30:09;8.55;;;7.70;;
75760;SDS011;64373;46.136;8.830;2023-08-21T01:32:48;8.32;;;7.15;;
75760;SDS011;64373;46.136;8.830;2023-08-21T01:35:15;10.25;;;7.72;;
75760;SDS011;64373;46.136;8.830;2023-08-21T01:37:41;9.73;;;7.75;;
75760;SDS011;64373;46.136;8.830;2023-08-21T01:40:07;8.60;;;7.15;;
75760;SDS011;64373;46.136;8.830;2023-08-21T01:42:33;9.55;;;8.55;;
75760;SDS011;64373;46.136;8.830;2023-08-21T01:44:58;10.90;;;9.40;;
75760;SDS011;64373;46.136;8.830;2023-08-21T01:47:24;11.10;;;8.73;;
75760;SDS011;64373;46.136;8.830;2023-08-21T01:49:49;8.27;;;7.30;;
75760;SDS011;64373;46.136;8.830;2023-08-21T01:52:18;7.60;;;6.80;;
75760;SDS011;64373;46.136;8.830;2023-08-21T01:54:44;9.25;;;6.90;;
75760;SDS011;64373;46.136;8.830;2023-08-21T01:57:10;9.35;;;8.23;;
75760;SDS011;64373;46.136;8.830;2023-08-21T01:59:35;11.88;;;10.00;;
75760;SDS011;64373;46.136;8.830;2023-08-21T02:02:01;9.65;;;7.45;;
75760;SDS011;64373;46.136;8.830;2023-08-21T02:04:26;10.30;;;9.30;;
75760;SDS011;64373;46.136;8.830;2023-08-21T02:06:52;12.75;;;10.35;;
75760;SDS011;64373;46.136;8.830;2023-08-21T02:09:17;11.13;;;9.18;;
75760;SDS011;64373;46.136;8.830;2023-08-21T02:11:43;13.32;;;11.88;;
75760;SDS011;64373;46.136;8.830;2023-08-21T02:14:08;12.82;;;10.55;;
75760;SDS011;64373;46.136;8.830;2023-08-21T02:16:34;12.48;;;10.68;;
75760;SDS011;64373;46.136;8.830;2023-08-21T02:18:59;9.68;;;8.50;;
75760;SDS011;64373;46.136;8.830;2023-08-21T02:21:25;8.38;;;7.57;;
75760;SDS011;64373;46.136;8.830;2023-08-21T02:23:51;8.55;;;7.68;;
75760;SDS011;64373;46.136;8.830;2023-08-21T02:26:17;7.88;;;7.07;;
75760;SDS011;64373;46.136;8.830;2023-08-21T02:28:44;9.48;;;7.45;;
75760;SDS011;64373;46.136;8.830;2023-08-21T02:31:10;8.55;;;7.30;;
75760;SDS011;64373;46.136;8.830;2023-08-21T02:33:36;9.15;;;6.93;;
75760;SDS011;64373;46.136;8.830;2023-08-21T02:36:02;9.55;;;8.50;;
75760;SDS011;64373;46.136;8.830;2023-08-21T02:38:28;11.00;;;9.00;;
75760;SDS011;64373;46.136;8.830;2023-08-21T02:40:54;11.35;;;8.73;;
75760;SDS011;64373;46.136;8.830;2023-08-21T02:43:20;8.68;;;7.22;;
75760;SDS011;64373;46.136;8.830;2023-08-21T02:45:46;6.72;;;6.03;;
75760;SDS011;64373;46.136;8.830;2023-08-21T02:48:11;6.22;;;5.63;;
75760;SDS011;64373;46.136;8.830;2023-08-21T02:50:37;5.97;;;5.38;;
75760;SDS011;64373;46.136;8.830;2023-08-21T02:53:02;6.68;;;5.80;;
75760;SDS011;64373;46.136;8.830;2023-08-21T02:55:28;5.85;;;5.25;;
75760;SDS011;64373;46.136;8.830;2023-08-21T02:57:53;6.28;;;5.68;;
75760;SDS011;64373;46.136;8.830;2023-08-21T03:00:19;6.40;;;5.20;;
75760;SDS011;64373;46.136;8.830;2023-08-21T03:02:45;7.70;;;6.90;;
75760;SDS011;64373;46.136;8.830;2023-08-21T03:05:10;9.98;;;7.47;;
75760;SDS011;64373;46.136;8.830;2023-08-21T03:07:36;9.80;;;8.25;;
75760;SDS011;64373;46.136;8.830;2023-08-21T03:10:01;8.00;;;6.78;;
75760;SDS011;64373;46.136;8.830;2023-08-21T03:12:27;7.43;;;6.38;;
75760;SDS011;64373;46.136;8.830;2023-08-21T03:14:53;8.48;;;7.47;;
75760;SDS011;64373;46.136;8.830;2023-08-21T03:17:19;7.10;;;6.38;;
75760;SDS011;64373;46.136;8.830;2023-08-21T03:19:44;9.18;;;7.90;;
75760;SDS011;64373;46.136;8.830;2023-08-21T03:22:10;6.03;;;5.43;;
75760;SDS011;64373;46.136;8.830;2023-08-21T03:24:36;7.05;;;6.45;;
75760;SDS011;64373;46.136;8.830;2023-08-21T03:27:02;8.43;;;7.53;;
75760;SDS011;64373;46.136;8.830;2023-08-21T03:29:27;7.30;;;6.50;;
75760;SDS011;64373;46.136;8.830;2023-08-21T03:31:53;8.60;;;7.45;;
75760;SDS011;64373;46.136;8.830;2023-08-21T03:34:22;8.63;;;7.55;;
75760;SDS011;64373;46.136;8.830;2023-08-21T03:36:47;7.90;;;6.70;;
75760;SDS011;64373;46.136;8.830;2023-08-21T03:39:13;8.68;;;7.63;;
75760;SDS011;64373;46.136;8.830;2023-08-21T03:41:39;8.60;;;7.28;;
75760;SDS011;64373;46.136;8.830;2023-08-21T03:44:04;7.03;;;6.32;;
75760;SDS011;64373;46.136;8.830;2023-08-21T03:46:30;9.15;;;8.15;;
75760;SDS011;64373;46.136;8.830;2023-08-21T03:48:55;10.25;;;8.85;;
75760;SDS011;64373;46.136;8.830;2023-08-21T03:51:21;10.15;;;9.05;;
75760;SDS011;64373;46.136;8.830;2023-08-21T03:53:46;11.10;;;10.00;;
75760;SDS011;64373;46.136;8.830;2023-08-21T03:56:12;10.30;;;8.98;;
75760;SDS011;64373;46.136;8.830;2023-08-21T03:58:37;12.15;;;10.68;;
75760;SDS011;64373;46.136;8.830;2023-08-21T04:01:03;13.13;;;10.95;;
75760;SDS011;64373;46.136;8.830;2023-08-21T04:03:29;12.00;;;10.70;;
75760;SDS011;64373;46.136;8.830;2023-08-21T04:05:54;14.13;;;11.32;;
75760;SDS011;64373;46.136;8.830;2023-08-21T04:08:22;8.85;;;7.95;;
75760;SDS011;64373;46.136;8.830;2023-08-21T04:10:49;8.93;;;8.00;;
75760;SDS011;64373;46.136;8.830;2023-08-21T04:13:17;10.82;;;9.23;;
75760;SDS011;64373;46.136;8.830;2023-08-21T04:15:46;9.75;;;8.75;;
75760;SDS011;64373;46.136;8.830;2023-08-21T04:18:13;9.20;;;7.82;;
75760;SDS011;64373;46.136;8.830;2023-08-21T04:20:39;12.00;;;10.10;;
75760;SDS011;64373;46.136;8.830;2023-08-21T04:23:05;10.57;;;8.82;;
75760;SDS011;64373;46.136;8.830;2023-08-21T04:25:30;13.70;;;10.27;;
75760;SDS011;64373;46.136;8.830;2023-08-21T04:27:55;10.88;;;9.07;;
75760;SDS011;64373;46.136;8.830;2023-08-21T04:30:21;11.55;;;10.38;;
75760;SDS011;64373;46.136;8.830;2023-08-21T04:32:47;11.90;;;9.90;;
75760;SDS011;64373;46.136;8.830;2023-08-21T04:35:13;11.05;;;9.73;;
75760;SDS011;64373;46.136;8.830;2023-08-21T04:37:43;14.40;;;11.32;;
75760;SDS011;64373;46.136;8.830;2023-08-21T04:40:11;9.13;;;7.88;;
75760;SDS011;64373;46.136;8.830;2023-08-21T04:42:37;10.70;;;9.45;;
75760;SDS011;64373;46.136;8.830;2023-08-21T04:45:03;10.55;;;9.23;;
75760;SDS011;64373;46.136;8.830;2023-08-21T04:47:30;8.85;;;7.95;;
75760;SDS011;64373;46.136;8.830;2023-08-21T04:49:57;7.60;;;6.22;;
75760;SDS011;64373;46.136;8.830;2023-08-21T04:52:23;8.40;;;7.50;;
75760;SDS011;64373;46.136;8.830;2023-08-21T04:54:49;8.60;;;7.43;;
75760;SDS011;64373;46.136;8.830;2023-08-21T04:57:15;7.75;;;6.85;;
75760;SDS011;64373;46.136;8.830;2023-08-21T04:59:41;6.60;;;5.90;;
75760;SDS011;64373;46.136;8.830;2023-08-21T05:02:06;6.45;;;5.75;;
75760;SDS011;64373;46.136;8.830;2023-08-21T05:04:32;7.55;;;5.53;;
75760;SDS011;64373;46.136;8.830;2023-08-21T05:06:59;6.57;;;5.47;;
75760;SDS011;64373;46.136;8.830;2023-08-21T05:09:25;6.65;;;5.32;;
75760;SDS011;64373;46.136;8.830;2023-08-21T05:11:51;6.60;;;5.68;;
75760;SDS011;64373;46.136;8.830;2023-08-21T05:14:16;7.68;;;6.95;;
75760;SDS011;64373;46.136;8.830;2023-08-21T05:16:44;9.20;;;6.97;;
75760;SDS011;64373;46.136;8.830;2023-08-21T05:19:11;6.63;;;5.90;;
75760;SDS011;64373;46.136;8.830;2023-08-21T05:21:36;7.30;;;6.25;;
75760;SDS011;64373;46.136;8.830;2023-08-21T05:24:02;7.80;;;7.00;;
75760;SDS011;64373;46.136;8.830;2023-08-21T05:26:28;7.72;;;6.38;;
75760;SDS011;64373;46.136;8.830;2023-08-21T05:28:54;6.38;;;5.63;;
75760;SDS011;64373;46.136;8.830;2023-08-21T05:31:19;6.97;;;6.28;;
75760;SDS011;64373;46.136;8.830;2023-08-21T05:33:45;6.38;;;5.60;;
75760;SDS011;64373;46.136;8.830;2023-08-21T05:36:10;9.00;;;7.38;;
75760;SDS011;64373;46.136;8.830;2023-08-21T05:38:36;6.95;;;6.20;;
75760;SDS011;64373;46.136;8.830;2023-08-21T05:41:02;6.82;;;6.13;;
75760;SDS011;64373;46.136;8.830;2023-08-21T05:43:27;8.88;;;7.53;;
75760;SDS011;64373;46.136;8.830;2023-08-21T05:45:53;8.85;;;7.03;;
75760;SDS011;64373;46.136;8.830;2023-08-21T05:48:19;7.15;;;6.45;;
75760;SDS011;64373;46.136;8.830;2023-08-21T05:50:45;7.97;;;6.88;;
75760;SDS011;64373;46.136;8.830;2023-08-21T05:53:16;8.45;;;7.18;;
75760;SDS011;64373;46.136;8.830;2023-08-21T05:55:41;5.93;;;5.00;;
75760;SDS011;64373;46.136;8.830;2023-08-21T05:58:07;7.05;;;5.82;;
75760;SDS011;64373;46.136;8.830;2023-08-21T06:00:33;6.13;;;5.35;;
75760;SDS011;64373;46.136;8.830;2023-08-21T06:02:59;7.03;;;6.28;;
75760;SDS011;64373;46.136;8.830;2023-08-21T06:05:25;9.55;;;8.55;;
75760;SDS011;64373;46.136;8.830;2023-08-21T06:07:51;6.80;;;6.10;;
75760;SDS011;64373;46.136;8.830;2023-08-21T06:10:17;7.78;;;6.97;;
75760;SDS011;64373;46.136;8.830;2023-08-21T06:12:42;6.20;;;5.55;;
75760;SDS011;64373;46.136;8.830;2023-08-21T06:15:08;6.63;;;5.43;;
75760;SDS011;64373;46.136;8.830;2023-08-21T06:17:35;7.30;;;6.20;;
75760;SDS011;64373;46.136;8.830;2023-08-21T06:20:02;8.68;;;7.00;;
75760;SDS011;64373;46.136;8.830;2023-08-21T06:22:31;12.30;;;10.35;;
75760;SDS011;64373;46.136;8.830;2023-08-21T06:24:57;15.32;;;12.18;;
75760;SDS011;64373;46.136;8.830;2023-08-21T06:27:23;12.30;;;10.35;;
75760;SDS011;64373;46.136;8.830;2023-08-21T06:29:48;11.50;;;9.85;;
75760;SDS011;64373;46.136;8.830;2023-08-21T06:32:14;13.27;;;10.93;;
75760;SDS011;64373;46.136;8.830;2023-08-21T06:34:40;10.75;;;9.52;;
75760;SDS011;64373;46.136;8.830;2023-08-21T06:37:05;11.65;;;10.45;;
75760;SDS011;64373;46.136;8.830;2023-08-21T06:39:31;10.93;;;9.65;;
75760;SDS011;64373;46.136;8.830;2023-08-21T06:41:57;10.05;;;8.98;;
75760;SDS011;64373;46.136;8.830;2023-08-21T06:44:23;12.90;;;11.32;;
75760;SDS011;64373;46.136;8.830;2023-08-21T06:46:48;14.30;;;12.10;;
75760;SDS011;64373;46.136;8.830;2023-08-21T06:49:14;10.93;;;9.57;;
75760;SDS011;64373;46.136;8.830;2023-08-21T06:51:39;9.52;;;8.38;;
75760;SDS011;64373;46.136;8.830;2023-08-21T06:54:05;14.65;;;11.20;;
75760;SDS011;64373;46.136;8.830;2023-08-21T06:56:31;12.70;;;11.40;;
75760;SDS011;64373;46.136;8.830;2023-08-21T06:58:57;13.13;;;11.75;;
75760;SDS011;64373;46.136;8.830;2023-08-21T07:01:23;11.60;;;10.27;;
75760;SDS011;64373;46.136;8.830;2023-08-21T07:03:49;11.63;;;10.43;;
75760;SDS011;64373;46.136;8.830;2023-08-21T07:06:14;10.23;;;9.00;;
75760;SDS011;64373;46.136;8.830;2023-08-21T07:08:40;10.90;;;8.57;;
75760;SDS011;64373;46.136;8.830;2023-08-21T07:11:06;12.00;;;10.35;;
75760;SDS011;64373;46.136;8.830;2023-08-21T07:13:35;12.20;;;10.00;;
75760;SDS011;64373;46.136;8.830;2023-08-21T07:16:01;11.35;;;10.18;;
75760;SDS011;64373;46.136;8.830;2023-08-21T07:18:28;11.20;;;9.93;;
75760;SDS011;64373;46.136;8.830;2023-08-21T07:20:57;12.43;;;10.75;;
75760;SDS011;64373;46.136;8.830;2023-08-21T07:23:23;12.30;;;11.00;;
75760;SDS011;64373;46.136;8.830;2023-08-21T07:25:49;15.77;;;12.40;;
75760;SDS011;64373;46.136;8.830;2023-08-21T07:28:14;13.80;;;11.75;;
75760;SDS011;64373;46.136;8.830;2023-08-21T07:30:40;13.18;;;9.85;;
75760;SDS011;64373;46.136;8.830;2023-08-21T07:33:06;12.27;;;11.07;;
75760;SDS011;64373;46.136;8.830;2023-08-21T07:35:33;11.68;;;10.18;;
75760;SDS011;64373;46.136;8.830;2023-08-21T07:38:05;16.23;;;11.00;;
75760;SDS011;64373;46.136;8.830;2023-08-21T07:40:30;14.52;;;12.32;;
75760;SDS011;64373;46.136;8.830;2023-08-21T07:42:56;13.77;;;11.45;;
75760;SDS011;64373;46.136;8.830;2023-08-21T07:45:22;13.07;;;11.35;;
75760;SDS011;64373;46.136;8.830;2023-08-21T07:47:47;15.77;;;12.27;;
75760;SDS011;64373;46.136;8.830;2023-08-21T07:50:13;15.25;;;12.68;;
75760;SDS011;64373;46.136;8.830;2023-08-21T07:52:42;13.48;;;12.05;;
75760;SDS011;64373;46.136;8.830;2023-08-21T07:55:08;12.27;;;10.98;;
75760;SDS011;64373;46.136;8.830;2023-08-21T07:57:34;15.70;;;12.05;;
75760;SDS011;64373;46.136;8.830;2023-08-21T08:00:00;14.77;;;11.73;;
75760;SDS011;64373;46.136;8.830;2023-08-21T08:02:26;15.15;;;11.90;;
75760;SDS011;64373;46.136;8.830;2023-08-21T08:04:51;15.23;;;10.95;;
75760;SDS011;64373;46.136;8.830;2023-08-21T08:07:17;13.50;;;11.40;;
75760;SDS011;64373;46.136;8.830;2023-08-21T08:09:43;14.70;;;11.82;;
75760;SDS011;64373;46.136;8.830;2023-08-21T08:12:09;12.63;;;11.02;;
75760;SDS011;64373;46.136;8.830;2023-08-21T08:14:34;12.13;;;10.93;;
75760;SDS011;64373;46.136;8.830;2023-08-21T08:17:00;13.05;;;11.38;;
75760;SDS011;64373;46.136;8.830;2023-08-21T08:19:27;15.13;;;11.50;;
75760;SDS011;64373;46.136;8.830;2023-08-21T08:21:53;14.18;;;11.27;;
75760;SDS011;64373;46.136;8.830;2023-08-21T08:24:19;13.38;;;11.48;;
75760;SDS011;64373;46.136;8.830;2023-08-21T08:26:44;11.45;;;9.45;;
75760;SDS011;64373;46.136;8.830;2023-08-21T08:29:11;11.75;;;10.50;;
75760;SDS011;64373;46.136;8.830;2023-08-21T08:31:36;12.85;;;11.50;;
75760;SDS011;64373;46.136;8.830;2023-08-21T08:34:04;15.20;;;11.25;;
75760;SDS011;64373;46.136;8.830;2023-08-21T08:36:30;14.73;;;12.15;;
75760;SDS011;64373;46.136;8.830;2023-08-21T08:38:55;13.18;;;11.25;;
75760;SDS011;64373;46.136;8.830;2023-08-21T08:43:58;12.25;;;11.02;;
75760;SDS011;64373;46.136;8.830;2023-08-21T08:46:24;14.48;;;11.88;;
75760;SDS011;64373;46.136;8.830;2023-08-21T08:48:51;13.55;;;12.15;;
75760;SDS011;64373;46.136;8.830;2023-08-21T08:51:17;12.65;;;11.32;;
75760;SDS011;64373;46.136;8.830;2023-08-21T08:53:44;15.32;;;12.45;;
75760;SDS011;64373;46.136;8.830;2023-08-21T08:56:12;14.05;;;12.48;;
75760;SDS011;64373;46.136;8.830;2023-08-21T08:58:38;15.05;;;12.20;;
75760;SDS011;64373;46.136;8.830;2023-08-21T09:01:05;13.93;;;11.57;;
75760;SDS011;64373;46.136;8.830;2023-08-21T09:03:30;15.60;;;12.23;;
75760;SDS011;64373;46.136;8.830;2023-08-21T09:05:56;13.70;;;12.02;;
75760;SDS011;64373;46.136;8.830;2023-08-21T09:08:25;12.40;;;11.18;;
75760;SDS011;64373;46.136;8.830;2023-08-21T09:10:51;12.70;;;11.30;;
75760;SDS011;64373;46.136;8.830;2023-08-21T09:13:18;13.18;;;11.90;;
75760;SDS011;64373;46.136;8.830;2023-08-21T09:15:45;15.30;;;12.35;;
75760;SDS011;64373;46.136;8.830;2023-08-21T09:18:15;13.65;;;12.13;;
75760;SDS011;64373;46.136;8.830;2023-08-21T09:20:41;13.40;;;12.00;;
75760;SDS011;64373;46.136;8.830;2023-08-21T09:23:08;12.32;;;11.13;;
75760;SDS011;64373;46.136;8.830;2023-08-21T09:25:39;13.43;;;12.02;;
75760;SDS011;64373;46.136;8.830;2023-08-21T09:28:06;14.02;;;12.05;;
75760;SDS011;64373;46.136;8.830;2023-08-21T09:30:47;16.33;;;12.93;;
75760;SDS011;64373;46.136;8.830;2023-08-21T09:33:21;15.18;;;11.98;;
75760;SDS011;64373;46.136;8.830;2023-08-21T09:35:49;13.48;;;12.07;;
75760;SDS011;64373;46.136;8.830;2023-08-21T09:38:17;13.32;;;11.90;;
75760;SDS011;64373;46.136;8.830;2023-08-21T09:40:49;14.43;;;12.57;;
75760;SDS011;64373;46.136;8.830;2023-08-21T09:43:16;15.90;;;12.82;;
75760;SDS011;64373;46.136;8.830;2023-08-21T09:45:42;16.42;;;12.80;;
75760;SDS011;64373;46.136;8.830;2023-08-21T09:48:11;14.70;;;11.75;;
75760;SDS011;64373;46.136;8.830;2023-08-21T09:50:37;13.98;;;10.90;;
75760;SDS011;64373;46.136;8.830;2023-08-21T09:53:06;13.95;;;12.43;;
75760;SDS011;64373;46.136;8.830;2023-08-21T09:55:32;14.45;;;11.82;;
75760;SDS011;64373;46.136;8.830;2023-08-21T09:58:01;14.68;;;12.80;;
75760;SDS011;64373;46.136;8.830;2023-08-21T10:00:37;14.05;;;11.80;;
75760;SDS011;64373;46.136;8.830;2023-08-21T10:03:06;16.42;;;12.05;;
75760;SDS011;64373;46.136;8.830;2023-08-21T10:05:33;14.70;;;12.48;;
75760;SDS011;64373;46.136;8.830;2023-08-21T10:08:03;14.18;;;12.13;;
75760;SDS011;64373;46.136;8.830;2023-08-21T10:10:34;13.52;;;11.82;;
75760;SDS011;64373;46.136;8.830;2023-08-21T10:13:07;12.52;;;11.23;;
75760;SDS011;64373;46.136;8.830;2023-08-21T10:15:34;12.35;;;11.05;;
75760;SDS011;64373;46.136;8.830;2023-08-21T10:18:24;12.98;;;11.63;;
75760;SDS011;64373;46.136;8.830;2023-08-21T10:20:55;14.82;;;12.15;;
75760;SDS011;64373;46.136;8.830;2023-08-21T10:23:30;13.90;;;12.18;;
75760;SDS011;64373;46.136;8.830;2023-08-21T10:28:41;11.30;;;10.00;;
75760;SDS011;64373;46.136;8.830;2023-08-21T10:31:27;12.50;;;11.25;;
75760;SDS011;64373;46.136;8.830;2023-08-21T10:34:03;13.10;;;11.70;;
75760;SDS011;64373;46.136;8.830;2023-08-21T10:39:18;13.32;;;11.90;;
75760;SDS011;64373;46.136;8.830;2023-08-21T10:50:02;12.43;;;11.13;;
75760;SDS011;64373;46.136;8.830;2023-08-21T10:52:39;14.23;;;11.43;;
75760;SDS011;64373;46.136;8.830;2023-08-21T10:55:15;13.43;;;12.02;;
75760;SDS011;64373;46.136;8.830;2023-08-21T10:57:41;12.30;;;10.98;;
75760;SDS011;64373;46.136;8.830;2023-08-21T11:00:07;12.73;;;11.18;;
75760;SDS011;64373;46.136;8.830;2023-08-21T11:02:36;13.80;;;12.23;;
75760;SDS011;64373;46.136;8.830;2023-08-21T11:05:04;13.38;;;12.05;;
75760;SDS011;64373;46.136;8.830;2023-08-21T11:07:30;14.05;;;11.55;;
75760;SDS011;64373;46.136;8.830;2023-08-21T11:09:57;14.48;;;11.70;;
75760;SDS011;64373;46.136;8.830;2023-08-21T11:12:26;12.75;;;11.45;;
75760;SDS011;64373;46.136;8.830;2023-08-21T11:14:53;13.25;;;11.80;;
75760;SDS011;64373;46.136;8.830;2023-08-21T11:17:19;12.70;;;10.85;;
75760;SDS011;64373;46.136;8.830;2023-08-21T11:19:45;13.70;;;12.27;;
75760;SDS011;64373;46.136;8.830;2023-08-21T11:22:13;12.98;;;11.48;;
75760;SDS011;64373;46.136;8.830;2023-08-21T11:24:46;13.07;;;11.68;;
75760;SDS011;64373;46.136;8.830;2023-08-21T11:27:13;14.80;;;12.18;;
75760;SDS011;64373;46.136;8.830;2023-08-21T11:29:47;12.50;;;11.20;;
75760;SDS011;64373;46.136;8.830;2023-08-21T11:32:15;12.65;;;11.02;;
75760;SDS011;64373;46.136;8.830;2023-08-21T11:34:49;11.45;;;10.25;;
75760;SDS011;64373;46.136;8.830;2023-08-21T11:37:26;12.98;;;11.57;;
75760;SDS011;64373;46.136;8.830;2023-08-21T11:42:18;13.88;;;11.88;;
75760;SDS011;64373;46.136;8.830;2023-08-21T11:44:51;12.00;;;10.77;;
75760;SDS011;64373;46.136;8.830;2023-08-21T11:47:18;12.13;;;10.45;;
75760;SDS011;64373;46.136;8.830;2023-08-21T11:49:45;11.70;;;10.57;;
75760;SDS011;64373;46.136;8.830;2023-08-21T11:52:22;12.55;;;11.25;;
75760;SDS011;64373;46.136;8.830;2023-08-21T11:54:51;14.52;;;11.90;;
75760;SDS011;64373;46.136;8.830;2023-08-21T11:57:18;13.07;;;11.80;;
75760;SDS011;64373;46.136;8.830;2023-08-21T11:59:53;15.10;;;12.05;;
75760;SDS011;64373;46.136;8.830;2023-08-21T12:02:24;12.63;;;11.32;;
75760;SDS011;64373;46.136;8.830;2023-08-21T12:05:13;12.70;;;10.98;;
75760;SDS011;64373;46.136;8.830;2023-08-21T12:07:39;13.85;;;11.50;;
75760;SDS011;64373;46.136;8.830;2023-08-21T12:10:05;13.43;;;11.82;;
75760;SDS011;64373;46.136;8.830;2023-08-21T12:12:32;14.10;;;12.52;;
75760;SDS011;64373;46.136;8.830;2023-08-21T12:14:58;12.00;;;10.77;;
75760;SDS011;64373;46.136;8.830;2023-08-21T12:17:24;13.07;;;11.75;;
75760;SDS011;64373;46.136;8.830;2023-08-21T12:19:49;17.65;;;11.95;;
75760;SDS011;64373;46.136;8.830;2023-08-21T12:22:15;13.20;;;11.82;;
75760;SDS011;64373;46.136;8.830;2023-08-21T12:24:41;12.15;;;11.00;;
75760;SDS011;64373;46.136;8.830;2023-08-21T12:27:06;12.00;;;10.75;;
75760;SDS011;64373;46.136;8.830;2023-08-21T12:29:32;12.63;;;11.43;;
75760;SDS011;64373;46.136;8.830;2023-08-21T12:31:58;13.43;;;12.02;;
75760;SDS011;64373;46.136;8.830;2023-08-21T12:34:23;13.80;;;12.30;;
75760;SDS011;64373;46.136;8.830;2023-08-21T12:36:52;15.77;;;11.98;;
75760;SDS011;64373;46.136;8.830;2023-08-21T12:39:18;13.45;;;11.80;;
75760;SDS011;64373;46.136;8.830;2023-08-21T12:41:44;13.30;;;11.77;;
75760;SDS011;64373;46.136;8.830;2023-08-21T12:44:10;12.70;;;11.40;;
75760;SDS011;64373;46.136;8.830;2023-08-21T12:46:36;13.65;;;12.25;;
75760;SDS011;64373;46.136;8.830;2023-08-21T12:49:02;13.70;;;12.30;;
75760;SDS011;64373;46.136;8.830;2023-08-21T12:51:28;13.00;;;11.70;;
75760;SDS011;64373;46.136;8.830;2023-08-21T12:53:54;12.75;;;11.45;;
75760;SDS011;64373;46.136;8.830;2023-08-21T12:56:20;12.82;;;11.52;;
75760;SDS011;64373;46.136;8.830;2023-08-21T12:58:46;12.48;;;11.20;;
75760;SDS011;64373;46.136;8.830;2023-08-21T13:01:12;12.82;;;11.52;;
75760;SDS011;64373;46.136;8.830;2023-08-21T13:03:38;12.52;;;11.27;;
75760;SDS011;64373;46.136;8.830;2023-08-21T13:06:04;12.98;;;11.63;;
75760;SDS011;64373;46.136;8.830;2023-08-21T13:08:30;12.90;;;11.70;;
75760;SDS011;64373;46.136;8.830;2023-08-21T13:10:56;14.13;;;11.73;;
75760;SDS011;64373;46.136;8.830;2023-08-21T13:13:21;13.70;;;12.30;;
75760;SDS011;64373;46.136;8.830;2023-08-21T13:15:47;13.15;;;11.95;;
75760;SDS011;64373;46.136;8.830;2023-08-21T13:18:13;12.88;;;11.57;;
75760;SDS011;64373;46.136;8.830;2023-08-21T13:20:42;13.07;;;11.77;;
75760;SDS011;64373;46.136;8.830;2023-08-21T13:23:08;13.05;;;11.68;;
75760;SDS011;64373;46.136;8.830;2023-08-21T13:25:33;13.00;;;11.60;;
75760;SDS011;64373;46.136;8.830;2023-08-21T13:28:00;12.30;;;11.02;;
75760;SDS011;64373;46.136;8.830;2023-08-21T13:30:26;15.60;;;12.18;;
75760;SDS011;64373;46.136;8.830;2023-08-21T13:32:52;14.82;;;12.50;;
75760;SDS011;64373;46.136;8.830;2023-08-21T13:35:17;13.57;;;12.20;;
75760;SDS011;64373;46.136;8.830;2023-08-21T13:37:44;13.13;;;11.40;;
75760;SDS011;64373;46.136;8.830;2023-08-21T13:40:10;14.18;;;12.68;;
75760;SDS011;64373;46.136;8.830;2023-08-21T13:42:39;13.15;;;11.80;;
75760;SDS011;64373;46.136;8.830;2023-08-21T13:45:15;13.93;;;12.57;;
75760;SDS011;64373;46.136;8.830;2023-08-21T13:47:47;12.85;;;11.63;;
75760;SDS011;64373;46.136;8.830;2023-08-21T13:50:14;13.15;;;11.85;;
75760;SDS011;64373;46.136;8.830;2023-08-21T13:52:41;13.20;;;11.90;;
75760;SDS011;64373;46.136;8.830;2023-08-21T13:55:08;14.55;;;12.20;;
75760;SDS011;64373;46.136;8.830;2023-08-21T13:57:34;13.25;;;11.85;;
75760;SDS011;64373;46.136;8.830;2023-08-21T14:00:01;12.30;;;11.10;;
75760;SDS011;64373;46.136;8.830;2023-08-21T14:02:32;12.77;;;11.57;;
75760;SDS011;64373;46.136;8.830;2023-08-21T14:05:01;13.55;;;11.00;;
75760;SDS011;64373;46.136;8.830;2023-08-21T14:07:29;13.80;;;11.90;;
75760;SDS011;64373;46.136;8.830;2023-08-21T14:09:58;12.40;;;10.95;;
75760;SDS011;64373;46.136;8.830;2023-08-21T14:12:24;12.45;;;11.15;;
75760;SDS011;64373;46.136;8.830;2023-08-21T14:14:50;12.15;;;10.93;;
75760;SDS011;64373;46.136;8.830;2023-08-21T14:17:16;13.82;;;11.48;;
75760;SDS011;64373;46.136;8.830;2023-08-21T14:19:42;12.40;;;11.20;;
75760;SDS011;64373;46.136;8.830;2023-08-21T14:22:07;12.43;;;11.32;;
75760;SDS011;64373;46.136;8.830;2023-08-21T14:24:33;11.48;;;10.25;;
75760;SDS011;64373;46.136;8.830;2023-08-21T14:26:59;11.40;;;10.40;;
75760;SDS011;64373;46.136;8.830;2023-08-21T14:29:25;9.38;;;8.32;;
75760;SDS011;64373;46.136;8.830;2023-08-21T14:31:51;11.98;;;10.77;;
75760;SDS011;64373;46.136;8.830;2023-08-21T14:34:19;13.10;;;11.68;;
75760;SDS011;64373;46.136;8.830;2023-08-21T14:36:45;13.55;;;11.35;;
75760;SDS011;64373;46.136;8.830;2023-08-21T14:39:13;13.27;;;11.88;;
75760;SDS011;64373;46.136;8.830;2023-08-21T14:41:41;12.82;;;11.10;;
75760;SDS011;64373;46.136;8.830;2023-08-21T14:44:07;11.27;;;10.07;;
75760;SDS011;64373;46.136;8.830;2023-08-21T14:46:33;12.18;;;10.98;;
75760;SDS011;64373;46.136;8.830;2023-08-21T14:48:59;11.85;;;10.75;;